createdAt,value
2019-05-25T06:51:42.766Z,100.00
2019-05-25T06:54:18.902Z,100.00
2019-05-25T06:56:55.865Z,100.00
2019-05-25T06:59:32.295Z,100.00
2019-05-25T07:02:05.368Z,100.00
2019-05-25T07:04:40.966Z,100.00
2019-05-25T07:07:14.409Z,100.00
2019-05-25T07:09:51.682Z,100.00
2019-05-25T07:12:31.551Z,100.00
2019-05-25T07:15:03.243Z,100.00
2019-05-25T07:17:35.788Z,100.00
2019-05-25T07:20:17.204Z,100.00
2019-05-25T07:22:55.554Z,100.00
2019-05-25T07:25:43.263Z,100.00
2019-05-25T07:28:44.943Z,100.00
2019-05-25T07:31:24.077Z,100.00
2019-05-25T07:34:02.428Z,100.00
2019-05-25T07:36:35.825Z,100.00
2019-05-25T07:39:08.441Z,100.00
2019-05-25T07:41:53.690Z,100.00
2019-05-25T07:44:32.189Z,100.00
2019-05-25T07:47:04.774Z,97.42
2019-05-25T07:49:40.547Z,96.45
2019-05-25T07:52:13.959Z,97.62
2019-05-25T07:54:52.091Z,90.80
2019-05-25T07:57:28.341Z,93.19
2019-05-25T08:00:01.307Z,90.61
2019-05-25T08:02:34.695Z,83.90
2019-05-25T08:05:12.416Z,86.36
2019-05-25T08:07:46.077Z,80.76
2019-05-25T08:10:21.709Z,79.72
2019-05-25T08:12:55.070Z,77.38
2019-05-25T08:15:30.701Z,74.70
2019-05-25T08:18:12.843Z,70.07
2019-05-25T08:20:54.174Z,71.50
2019-05-25T08:23:31.975Z,67.38
2019-05-25T08:26:07.373Z,66.21
2019-05-25T08:28:45.082Z,65.69
2019-05-25T08:31:22.565Z,63.84
2019-05-25T08:33:59.667Z,66.54
2019-05-25T08:36:34.364Z,65.92
2019-05-25T08:39:09.422Z,63.94
2019-05-25T08:41:45.597Z,68.17
2019-05-25T08:44:21.451Z,62.18
2019-05-25T08:46:55.447Z,57.92
2019-05-25T08:49:31.645Z,59.17
2019-05-25T08:52:06.156Z,61.83
2019-05-25T08:54:43.833Z,58.85
2019-05-25T08:57:18.651Z,64.05
2019-05-25T08:59:53.463Z,61.58
2019-05-25T09:02:27.073Z,61.24
2019-05-25T09:05:03.287Z,60.37
2019-05-25T09:07:36.521Z,59.70
2019-05-25T09:10:11.906Z,59.97
2019-05-25T09:12:45.959Z,56.10
2019-05-25T09:15:25.214Z,63.18
2019-05-25T09:18:02.089Z,60.08
2019-05-25T09:20:35.673Z,61.46
2019-05-25T09:23:12.714Z,60.20
2019-05-25T09:25:51.489Z,56.22
2019-05-25T09:28:27.145Z,60.89
2019-05-25T09:31:04.515Z,58.81
2019-05-25T09:33:38.036Z,58.85
2019-05-25T09:36:13.579Z,55.94
2019-05-25T09:38:51.052Z,60.80
2019-05-25T09:41:31.548Z,54.50
2019-05-25T09:44:06.191Z,57.14
2019-05-25T09:46:44.608Z,55.88
2019-05-25T09:49:21.484Z,53.99
2019-05-25T09:51:54.945Z,50.89
2019-05-25T09:54:28.309Z,47.83
2019-05-25T09:57:04.114Z,48.12
2019-05-25T09:59:37.587Z,44.34
2019-05-25T10:02:11.751Z,46.26
2019-05-25T10:04:44.809Z,58.14
2019-05-25T10:07:21.308Z,58.14
2019-05-25T10:09:57.529Z,58.36
2019-05-25T10:12:34.105Z,55.14
2019-05-25T10:15:09.333Z,48.14
2019-05-25T10:17:44.366Z,44.42
2019-05-25T10:20:22.253Z,47.20
2019-05-25T10:22:55.671Z,48.87
2019-05-25T10:25:31.985Z,43.40
2019-05-25T10:28:06.965Z,47.44
2019-05-25T10:30:43.544Z,48.78
2019-05-25T10:33:16.111Z,52.55
2019-05-25T10:35:53.553Z,52.55
2019-05-25T10:38:26.719Z,54.10
2019-05-25T10:41:04.021Z,50.30
2019-05-25T10:43:40.834Z,50.30
2019-05-25T10:46:14.369Z,54.27
2019-05-25T10:48:47.656Z,50.78
2019-05-25T10:51:23.279Z,48.50
2019-05-25T10:54:02.634Z,48.50
2019-05-25T10:56:35.568Z,54.90
2019-05-25T10:59:09.316Z,51.16
2019-05-25T11:01:54.648Z,52.51
2019-05-25T11:04:44.768Z,50.50
2019-05-25T11:07:25.834Z,50.50
2019-05-25T11:10:03.222Z,49.43
2019-05-25T11:12:42.861Z,49.43
2019-05-25T11:15:20.299Z,52.14
2019-05-25T11:17:56.961Z,52.14
2019-05-25T11:20:53.476Z,50.99
2019-05-25T11:23:26.390Z,52.70
2019-05-25T11:26:02.689Z,49.52
2019-05-25T11:28:42.522Z,47.15
2019-05-25T11:31:14.439Z,51.71
2019-05-25T11:33:53.005Z,54.32
2019-05-25T11:36:23.429Z,50.73
2019-05-25T11:39:03.709Z,51.97
2019-05-25T11:41:34.548Z,51.97
2019-05-25T11:44:12.982Z,53.63
2019-05-25T11:46:46.419Z,54.83
2019-05-25T11:49:22.516Z,55.30
2019-05-25T11:51:55.447Z,57.60
2019-05-25T11:54:32.338Z,56.27
2019-05-25T11:57:05.383Z,52.46
2019-05-25T11:59:44.674Z,52.41
2019-05-25T12:02:16.319Z,44.67
2019-05-25T12:04:52.661Z,51.55
2019-05-25T12:07:26.615Z,47.62
2019-05-25T12:10:04.395Z,49.90
2019-05-25T12:12:39.724Z,51.02
2019-05-25T12:15:16.325Z,50.09
2019-05-25T12:17:52.833Z,50.09
2019-05-25T12:20:31.115Z,50.76
2019-05-25T12:23:02.198Z,50.76
2019-05-25T12:25:35.738Z,50.93
2019-05-25T12:28:13.379Z,52.66
2019-05-25T12:30:46.354Z,49.44
2019-05-25T12:33:23.682Z,49.44
2019-05-25T12:35:57.396Z,48.16
2019-05-25T12:38:35.288Z,46.32
2019-05-25T12:41:13.894Z,47.71
2019-05-25T12:43:48.561Z,50.33
2019-05-25T12:46:21.954Z,48.47
2019-05-25T12:48:56.039Z,48.47
2019-05-25T12:51:29.429Z,51.46
2019-05-25T12:54:02.160Z,57.38
2019-05-25T12:56:35.271Z,60.58
2019-05-25T12:59:08.827Z,54.40
2019-05-25T13:01:42.445Z,55.87
2019-05-25T13:04:15.604Z,58.86
2019-05-25T13:06:48.721Z,52.21
2019-05-25T13:09:21.332Z,52.21
2019-05-25T13:11:54.592Z,55.19
2019-05-25T13:14:27.564Z,55.19
2019-05-25T13:17:01.448Z,58.24
2019-05-25T13:19:34.328Z,55.10
2019-05-25T13:22:07.381Z,56.11
2019-05-25T13:24:40.755Z,55.23
2019-05-25T13:27:14.405Z,57.77
2019-05-25T13:29:47.003Z,60.11
2019-05-25T13:32:22.600Z,58.46
2019-05-25T13:34:55.868Z,57.34
2019-05-25T13:37:29.421Z,59.02
2019-05-25T13:40:03.328Z,63.83
2019-05-25T13:42:37.130Z,59.16
2019-05-25T13:45:10.962Z,58.06
2019-05-25T13:47:43.983Z,58.79
2019-05-25T13:50:21.117Z,60.43
2019-05-25T13:52:53.836Z,59.71
2019-05-25T13:55:27.023Z,60.30
2019-05-25T13:58:00.342Z,59.92
2019-05-25T14:00:33.721Z,54.73
2019-05-25T14:03:07.582Z,53.98
2019-05-25T14:05:41.077Z,52.66
2019-05-25T14:08:14.752Z,51.61
2019-05-25T14:10:47.790Z,52.91
2019-05-25T14:13:21.629Z,52.91
2019-05-25T14:16:06.716Z,44.95
2019-05-25T14:18:30.048Z,43.92
2019-05-25T14:21:03.670Z,44.71
2019-05-25T14:23:36.816Z,43.12
2019-05-25T14:26:09.630Z,43.42
2019-05-25T14:28:42.633Z,52.16
2019-05-25T14:31:44.355Z,49.87
2019-05-25T14:34:04.780Z,51.98
2019-05-25T14:36:37.151Z,51.98
2019-05-25T14:39:10.311Z,51.77
2019-05-25T14:41:43.121Z,48.37
2019-05-25T14:44:16.020Z,54.24
2019-05-25T14:46:49.562Z,54.62
2019-05-25T14:49:22.877Z,54.62
2019-05-25T14:51:56.282Z,49.75
2019-05-25T14:54:28.978Z,48.81
2019-05-25T14:57:01.731Z,49.63
2019-05-25T14:59:34.729Z,51.45
2019-05-25T15:02:07.729Z,57.79
2019-05-25T15:04:41.115Z,56.58
2019-05-25T15:07:14.947Z,51.01
2019-05-25T15:09:48.571Z,50.00
2019-05-25T15:12:24.087Z,47.77
2019-05-25T15:14:59.050Z,47.37
2019-05-25T15:17:31.952Z,48.46
2019-05-25T15:20:05.633Z,51.75
2019-05-25T15:22:39.227Z,52.07
2019-05-25T15:25:13.196Z,52.07
2019-05-25T15:27:48.226Z,55.71
2019-05-25T15:30:20.980Z,56.76
2019-05-25T15:32:54.106Z,55.33
2019-05-25T15:35:28.845Z,58.95
2019-05-25T15:38:02.372Z,55.68
2019-05-25T15:40:39.425Z,54.83
2019-05-25T15:43:12.393Z,54.73
2019-05-25T15:45:48.288Z,50.65
2019-05-25T15:48:21.094Z,54.21
2019-05-25T15:50:55.915Z,50.93
2019-05-25T15:53:29.124Z,49.49
2019-05-25T15:56:02.671Z,48.91
2019-05-25T15:58:39.921Z,51.30
2019-05-25T16:01:15.128Z,47.29
2019-05-25T16:03:51.053Z,50.63
2019-05-25T16:06:24.547Z,49.11
2019-05-25T16:09:00.328Z,52.29
2019-05-25T16:11:36.188Z,52.53
2019-05-25T16:14:09.184Z,57.18
2019-05-25T16:16:42.709Z,56.40
2019-05-25T16:19:18.314Z,58.58
2019-05-25T16:21:52.027Z,55.36
2019-05-25T16:24:25.950Z,54.51
2019-05-25T16:26:59.890Z,55.69
2019-05-25T16:29:33.856Z,58.74
2019-05-25T16:32:07.054Z,56.55
2019-05-25T16:34:40.496Z,56.73
2019-05-25T16:37:13.805Z,56.11
2019-05-25T16:39:48.356Z,56.79
2019-05-25T16:42:22.256Z,57.59
2019-05-25T16:44:55.055Z,57.47
2019-05-25T16:47:28.560Z,60.16
2019-05-25T16:50:02.041Z,60.24
2019-05-25T16:52:35.183Z,60.04
2019-05-25T16:55:08.542Z,60.99
2019-05-25T16:57:41.994Z,61.60
2019-05-25T17:00:19.645Z,61.08
2019-05-25T17:02:52.770Z,59.93
2019-05-25T17:05:26.247Z,58.41
2019-05-25T17:07:58.871Z,60.77
2019-05-25T17:10:32.304Z,59.88
2019-05-25T17:13:05.343Z,62.89
2019-05-25T17:15:39.917Z,63.78
2019-05-25T17:18:13.262Z,63.62
2019-05-25T17:20:48.301Z,61.16
2019-05-25T17:23:21.333Z,62.92
2019-05-25T17:25:55.195Z,63.60
2019-05-25T17:28:28.763Z,63.72
2019-05-25T17:31:02.142Z,64.98
2019-05-25T17:33:45.494Z,65.63
2019-05-25T17:36:12.888Z,65.87
2019-05-25T17:38:46.057Z,66.57
2019-05-25T17:41:18.702Z,68.00
2019-05-25T17:43:51.793Z,65.92
2019-05-25T17:46:25.288Z,66.27
2019-05-25T17:48:57.752Z,66.32
2019-05-25T17:51:31.234Z,67.73
2019-05-25T17:54:04.529Z,66.33
2019-05-25T17:56:40.402Z,67.18
2019-05-25T17:59:13.356Z,68.75
2019-05-25T18:01:49.378Z,68.99
2019-05-25T18:04:21.672Z,68.04
2019-05-25T18:06:56.735Z,68.43
2019-05-25T18:09:31.497Z,69.54
2019-05-25T18:12:06.647Z,68.02
2019-05-25T18:14:39.946Z,68.44
2019-05-25T18:17:12.531Z,71.58
2019-05-25T18:19:46.034Z,70.79
2019-05-25T18:22:19.174Z,71.47
2019-05-25T18:24:53.192Z,72.39
2019-05-25T18:27:26.762Z,70.66
2019-05-25T18:29:59.749Z,71.47
2019-05-25T18:32:32.406Z,71.66
2019-05-25T18:35:05.994Z,72.58
2019-05-25T18:37:39.299Z,72.59
2019-05-25T18:40:14.083Z,72.15
2019-05-25T18:42:47.369Z,69.45
2019-05-25T18:45:21.179Z,70.60
2019-05-25T18:47:54.415Z,70.83
2019-05-25T18:50:28.076Z,71.36
2019-05-25T18:53:03.265Z,72.30
2019-05-25T18:55:36.300Z,74.00
2019-05-25T18:58:09.814Z,74.54
2019-05-25T19:00:42.925Z,76.50
2019-05-25T19:03:16.448Z,77.88
2019-05-25T19:05:52.222Z,78.60
2019-05-25T19:08:28.902Z,79.27
2019-05-25T19:11:02.162Z,80.61
2019-05-25T19:13:36.786Z,84.26
2019-05-25T19:16:10.262Z,82.97
2019-05-25T19:18:44.242Z,85.29
2019-05-25T19:21:19.049Z,84.56
2019-05-25T19:23:52.314Z,87.11
2019-05-25T19:26:26.047Z,84.16
2019-05-25T19:28:59.116Z,86.54
2019-05-25T19:31:32.240Z,87.15
2019-05-25T19:34:05.650Z,88.06
2019-05-25T19:36:39.240Z,88.04
2019-05-25T19:39:12.461Z,88.81
2019-05-25T19:41:46.136Z,91.38
2019-05-25T19:44:19.280Z,93.33
2019-05-25T19:46:52.502Z,95.08
2019-05-25T19:49:26.046Z,96.11
2019-05-25T19:51:59.786Z,97.71
2019-05-25T19:54:33.025Z,98.60
2019-05-25T19:57:05.932Z,99.42
2019-05-25T19:59:38.895Z,99.48
2019-05-25T20:02:12.033Z,100.00
2019-05-25T20:04:45.795Z,100.00
2019-05-25T20:07:19.701Z,100.00
2019-05-25T20:09:52.788Z,100.00
2019-05-25T20:12:26.854Z,100.00
2019-05-25T20:14:59.395Z,100.00
2019-05-25T20:17:32.614Z,100.00
2019-05-25T20:20:09.163Z,100.00
2019-05-25T20:22:43.204Z,100.00
2019-05-25T20:25:16.408Z,100.00
2019-05-25T20:27:49.922Z,100.00
2019-05-25T20:30:23.332Z,100.00
2019-05-25T20:32:56.069Z,100.00
2019-05-25T20:35:32.957Z,100.00
2019-05-25T20:38:05.008Z,100.00
2019-05-25T20:40:38.519Z,100.00
2019-05-25T20:43:11.586Z,100.00
2019-05-25T20:45:45.983Z,100.00
2019-05-25T20:48:19.829Z,100.00
2019-05-25T20:50:53.429Z,100.00
2019-05-25T20:53:27.399Z,100.00
2019-05-25T20:56:01.157Z,100.00
2019-05-25T20:58:35.081Z,100.00
2019-05-25T21:01:08.203Z,100.00
2019-05-25T21:03:41.354Z,100.00
2019-05-25T21:06:14.563Z,100.00
2019-05-25T21:08:48.349Z,100.00
2019-05-25T21:11:21.320Z,100.00
2019-05-25T21:13:54.948Z,100.00
2019-05-25T21:16:28.826Z,100.00
2019-05-25T21:19:03.086Z,100.00
2019-05-25T21:21:36.115Z,100.00
2019-05-25T21:24:09.764Z,100.00
2019-05-25T21:26:43.230Z,100.00
2019-05-25T21:29:17.098Z,100.00
2019-05-25T21:31:50.366Z,100.00
2019-05-25T21:34:23.386Z,100.00
2019-05-25T21:36:57.739Z,100.00
2019-05-25T21:39:32.768Z,100.00
2019-05-25T21:42:13.848Z,100.00
2019-05-25T21:44:52.231Z,100.00
2019-05-25T21:47:28.954Z,100.00
2019-05-25T21:50:02.829Z,100.00
2019-05-25T21:52:49.987Z,100.00
2019-05-25T21:55:22.999Z,100.00
2019-05-25T21:58:03.173Z,100.00
2019-05-25T22:00:42.786Z,100.00
2019-05-25T22:04:10.323Z,100.00
2019-05-25T22:06:02.846Z,100.00
2019-05-25T22:08:40.830Z,100.00
2019-05-25T22:11:15.722Z,100.00
2019-05-25T22:13:50.251Z,100.00
2019-05-25T22:16:25.075Z,100.00
2019-05-25T22:18:58.545Z,100.00
2019-05-25T22:21:31.646Z,100.00
2019-05-25T22:24:10.764Z,100.00
2019-05-25T22:26:41.275Z,100.00
2019-05-25T22:29:15.461Z,100.00
2019-05-25T22:31:49.856Z,100.00
2019-05-25T22:34:27.921Z,100.00
2019-05-25T22:36:58.709Z,100.00
2019-05-25T22:39:32.615Z,100.00
2019-05-25T22:42:05.273Z,100.00
2019-05-25T22:44:38.567Z,100.00
2019-05-25T22:47:11.988Z,100.00
2019-05-25T22:49:46.504Z,100.00
2019-05-25T22:52:19.242Z,100.00
2019-05-25T22:54:55.862Z,100.00
2019-05-25T22:57:29.725Z,100.00
2019-05-25T23:00:03.539Z,100.00
2019-05-25T23:02:36.623Z,100.00
2019-05-25T23:05:10.597Z,100.00
2019-05-25T23:07:45.615Z,100.00
2019-05-25T23:10:21.379Z,100.00
2019-05-25T23:12:55.236Z,100.00
2019-05-25T23:15:29.775Z,100.00
2019-05-25T23:18:03.171Z,100.00
2019-05-25T23:20:41.343Z,100.00
2019-05-25T23:23:12.343Z,100.00
2019-05-25T23:25:49.055Z,100.00
2019-05-25T23:28:26.268Z,100.00
2019-05-25T23:30:59.943Z,100.00
2019-05-25T23:33:32.627Z,100.00
2019-05-25T23:36:09.622Z,100.00
2019-05-25T23:38:41.650Z,100.00
2019-05-25T23:41:19.082Z,100.00
2019-05-25T23:43:51.762Z,100.00
2019-05-25T23:46:29.278Z,100.00
2019-05-25T23:49:02.322Z,100.00
2019-05-25T23:51:38.969Z,100.00
2019-05-25T23:54:12.810Z,100.00
2019-05-25T23:56:49.890Z,100.00
2019-05-25T23:59:23.716Z,100.00
